Time;durP1;ratioP1;P1;durP2;ratioP2;P2;SDS_P1;SDS_P2;PMS_P1;PMS_P2;Temp;Humidity;BMP_temperature;BMP_pressure;BME280_temperature;BME280_humidity;BME280_pressure;Samples;Min_cycle;Max_cycle;Signal;HPM_P1;HPM_P2
2021/09/19 00:00:22;;;;;;;6.60;3.88;;;11.10;99.90;;;;;;4938448;28;20040;-72
2021/09/19 00:02:48;;;;;;;6.00;3.70;;;11.00;99.90;;;;;;4953747;28;20039;-72
2021/09/19 00:05:15;;;;;;;6.22;3.67;;;11.00;99.90;;;;;;4955627;28;20035;-73
2021/09/19 00:07:42;;;;;;;6.20;3.88;;;11.10;99.90;;;;;;4955293;28;20050;-72
2021/09/19 00:10:10;;;;;;;6.07;3.60;;;11.00;99.90;;;;;;4955236;28;20039;-74
2021/09/19 00:12:38;;;;;;;4.90;3.22;;;11.00;99.90;;;;;;4955443;28;20039;-72
2021/09/19 00:15:07;;;;;;;5.00;3.47;;;11.00;99.90;;;;;;4954875;28;20035;-72
2021/09/19 00:17:33;;;;;;;3.88;3.03;;;11.00;99.90;;;;;;4955652;28;20386;-72
2021/09/19 00:19:59;;;;;;;5.38;3.45;;;10.90;99.90;;;;;;4961153;28;20027;-72
2021/09/19 00:22:25;;;;;;;5.70;3.35;;;10.90;99.90;;;;;;4955296;28;20039;-73
2021/09/19 00:24:51;;;;;;;6.38;3.97;;;10.90;99.90;;;;;;4954317;28;20042;-72
2021/09/19 00:27:18;;;;;;;6.13;3.65;;;10.90;99.90;;;;;;4955236;28;20035;-71
2021/09/19 00:29:44;;;;;;;5.78;3.80;;;10.80;99.90;;;;;;4954591;28;20043;-73
2021/09/19 00:32:10;;;;;;;6.40;3.47;;;10.80;99.90;;;;;;4954906;28;20034;-73
2021/09/19 00:34:36;;;;;;;5.85;3.83;;;10.70;99.90;;;;;;4954678;28;20054;-73
2021/09/19 00:37:03;;;;;;;5.63;3.72;;;10.70;99.90;;;;;;4954196;28;20048;-73
2021/09/19 00:39:29;;;;;;;5.95;3.88;;;10.60;99.90;;;;;;4937896;29;20054;-73
2021/09/19 00:41:55;;;;;;;6.57;4.03;;;10.60;99.90;;;;;;4954114;28;20039;-73
2021/09/19 00:44:28;;;;;;;6.32;3.70;;;10.60;99.90;;;;;;4954444;28;20038;-73
2021/09/19 00:46:55;;;;;;;6.45;4.40;;;10.70;99.90;;;;;;4954625;28;20488;-73
2021/09/19 00:49:23;;;;;;;7.65;3.85;;;10.70;99.90;;;;;;4955727;28;20417;-73
2021/09/19 00:51:50;;;;;;;6.05;4.03;;;10.60;99.90;;;;;;4955198;28;20038;-73
2021/09/19 00:54:17;;;;;;;6.15;4.07;;;10.60;99.90;;;;;;4930937;29;20059;-72
2021/09/19 00:56:45;;;;;;;6.05;3.70;;;10.60;99.90;;;;;;4916763;29;20051;-73
2021/09/19 00:59:12;;;;;;;5.15;3.25;;;10.60;99.90;;;;;;4914900;29;20147;-73
2021/09/19 01:01:39;;;;;;;5.78;4.30;;;10.50;99.90;;;;;;4916932;29;20048;-73
2021/09/19 01:04:05;;;;;;;4.65;3.72;;;10.40;99.90;;;;;;4915247;29;20044;-73
2021/09/19 01:06:32;;;;;;;5.55;4.20;;;10.30;99.90;;;;;;4916275;29;20047;-72
2021/09/19 01:08:58;;;;;;;6.82;4.35;;;10.40;99.90;;;;;;4916185;29;20032;-72
2021/09/19 01:11:24;;;;;;;7.55;4.63;;;10.50;99.90;;;;;;4915987;29;20036;-72
2021/09/19 01:13:51;;;;;;;9.40;5.43;;;10.60;99.90;;;;;;4915595;29;20051;-73
2021/09/19 01:16:19;;;;;;;7.95;4.50;;;10.60;99.90;;;;;;4915845;29;20032;-73
2021/09/19 01:18:49;;;;;;;7.45;4.97;;;10.60;99.90;;;;;;4925708;29;20047;-73
2021/09/19 01:21:16;;;;;;;7.38;4.57;;;10.60;99.90;;;;;;4916544;29;20036;-73
2021/09/19 01:24:08;;;;;;;8.32;4.95;;;10.60;99.90;;;;;;4916537;29;20044;-73
2021/09/19 01:26:35;;;;;;;9.18;4.13;;;10.60;99.90;;;;;;4915805;29;20048;-74
2021/09/19 01:29:01;;;;;;;6.85;4.43;;;10.60;99.90;;;;;;4931063;29;20434;-71
2021/09/19 01:31:28;;;;;;;6.00;3.88;;;10.60;99.90;;;;;;4916085;29;20066;-71
2021/09/19 01:33:55;;;;;;;7.38;4.38;;;10.50;99.90;;;;;;4915577;29;20032;-72
2021/09/19 01:36:22;;;;;;;8.02;4.05;;;10.40;99.90;;;;;;4915923;29;20032;-72
2021/09/19 01:38:48;;;;;;;6.20;3.83;;;10.40;99.90;;;;;;4916244;29;20028;-73
2021/09/19 01:41:23;;;;;;;5.57;4.10;;;10.40;99.90;;;;;;4915855;29;20047;-73
2021/09/19 01:43:49;;;;;;;6.45;4.20;;;10.30;99.90;;;;;;4916277;29;20052;-73
2021/09/19 01:46:16;;;;;;;5.88;3.60;;;10.30;99.90;;;;;;4916227;29;20050;-73
2021/09/19 01:48:43;;;;;;;6.47;3.92;;;10.40;99.90;;;;;;4917725;29;20051;-72
2021/09/19 01:51:09;;;;;;;6.70;3.67;;;10.40;99.90;;;;;;4918349;29;20032;-73
2021/09/19 01:53:40;;;;;;;6.00;3.88;;;10.40;99.90;;;;;;4918575;29;20040;-72
2021/09/19 01:56:08;;;;;;;7.20;4.38;;;10.40;99.90;;;;;;4953892;28;20038;-73
2021/09/19 01:58:46;;;;;;;6.13;4.38;;;10.40;99.90;;;;;;4953748;28;20039;-72
2021/09/19 02:01:12;;;;;;;5.00;3.30;;;10.40;99.90;;;;;;4953593;28;20044;-72
2021/09/19 02:03:40;;;;;;;6.60;3.70;;;10.40;99.90;;;;;;4953652;28;20070;-72
2021/09/19 02:06:07;;;;;;;5.32;3.42;;;10.40;99.90;;;;;;4953459;28;20389;-73
2021/09/19 02:08:37;;;;;;;6.70;3.58;;;10.40;99.90;;;;;;4954192;28;20382;-72
2021/09/19 02:11:05;;;;;;;5.75;3.85;;;10.40;99.90;;;;;;4953417;28;20035;-72
2021/09/19 02:13:32;;;;;;;4.47;3.22;;;10.40;99.90;;;;;;4953139;28;20066;-72
2021/09/19 02:16:00;;;;;;;5.60;3.28;;;10.40;99.90;;;;;;4956077;28;20035;-72
2021/09/19 02:18:26;;;;;;;5.32;3.17;;;10.30;99.90;;;;;;4963702;28;20042;-73
2021/09/19 02:20:53;;;;;;;11.43;4.25;;;10.30;99.90;;;;;;4958490;28;20393;-72
2021/09/19 02:23:19;;;;;;;5.90;3.60;;;10.30;99.90;;;;;;4957738;28;20039;-73
2021/09/19 02:25:45;;;;;;;5.03;3.42;;;10.40;99.90;;;;;;4957782;28;20031;-72
2021/09/19 02:28:15;;;;;;;4.78;3.20;;;10.40;99.90;;;;;;4956203;28;20058;-73
2021/09/19 02:30:41;;;;;;;4.78;3.13;;;10.30;99.90;;;;;;4957261;28;20031;-73
2021/09/19 02:33:08;;;;;;;5.10;3.13;;;10.30;99.90;;;;;;4956909;28;20031;-73
2021/09/19 02:35:34;;;;;;;5.28;3.70;;;10.30;99.90;;;;;;4955981;28;20035;-72
2021/09/19 02:38:00;;;;;;;5.25;3.10;;;10.20;99.90;;;;;;4956257;28;20405;-72
2021/09/19 02:40:26;;;;;;;5.72;3.67;;;10.20;99.90;;;;;;4955857;28;20039;-72
2021/09/19 02:42:54;;;;;;;5.30;3.15;;;10.20;99.90;;;;;;4956918;28;20063;-72
2021/09/19 02:45:21;;;;;;;7.00;3.45;;;10.20;99.90;;;;;;4956599;28;20031;-73
2021/09/19 02:47:48;;;;;;;5.00;3.50;;;10.20;99.90;;;;;;4956937;28;20054;-71
2021/09/19 02:50:20;;;;;;;5.18;3.42;;;10.30;99.90;;;;;;4954992;28;20047;-72
2021/09/19 02:52:48;;;;;;;5.32;3.70;;;10.20;99.90;;;;;;4957070;28;20039;-72
2021/09/19 02:55:17;;;;;;;5.45;3.42;;;10.30;99.90;;;;;;4951112;28;20043;-72
2021/09/19 02:57:44;;;;;;;3.80;2.90;;;10.20;99.90;;;;;;4952219;29;20461;-72
2021/09/19 03:00:16;;;;;;;4.15;3.05;;;10.20;99.90;;;;;;4937401;29;20207;-72
2021/09/19 03:02:44;;;;;;;4.05;2.85;;;10.20;99.90;;;;;;4937479;29;20066;-72
2021/09/19 03:05:11;;;;;;;4.60;2.95;;;10.30;99.90;;;;;;4937825;29;20321;-73
2021/09/19 03:07:39;;;;;;;4.35;2.83;;;10.30;99.90;;;;;;4937678;29;20035;-72
2021/09/19 03:10:07;;;;;;;4.43;2.92;;;10.20;99.90;;;;;;4936909;29;20036;-72
2021/09/19 03:12:33;;;;;;;4.47;3.10;;;10.20;99.90;;;;;;4937782;29;20032;-72
2021/09/19 03:15:00;;;;;;;6.60;3.00;;;10.20;99.90;;;;;;4936850;29;20465;-72
2021/09/19 03:17:27;;;;;;;3.83;2.72;;;10.10;99.90;;;;;;4938286;28;20052;-72
2021/09/19 03:19:53;;;;;;;5.68;3.13;;;10.10;99.90;;;;;;4936846;29;20035;-71
2021/09/19 03:22:19;;;;;;;4.60;3.00;;;10.10;99.90;;;;;;4952475;28;20040;-72
2021/09/19 03:24:45;;;;;;;5.00;2.88;;;10.20;99.90;;;;;;4937321;29;20032;-72
2021/09/19 03:27:11;;;;;;;5.38;2.65;;;10.20;99.90;;;;;;4936519;29;20039;-72
2021/09/19 03:29:38;;;;;;;5.10;3.33;;;10.10;99.90;;;;;;4936851;29;20389;-72
2021/09/19 03:32:05;;;;;;;4.45;2.50;;;10.10;99.90;;;;;;4935528;29;20036;-73
2021/09/19 03:34:34;;;;;;;4.18;2.83;;;10.20;99.90;;;;;;4936871;29;20046;-72
2021/09/19 03:37:02;;;;;;;4.68;2.90;;;10.20;99.90;;;;;;4936728;29;20401;-72
2021/09/19 03:39:28;;;;;;;5.40;3.63;;;10.30;99.90;;;;;;4936414;29;20040;-73
2021/09/19 03:41:54;;;;;;;7.30;3.17;;;10.30;99.90;;;;;;4935829;29;20492;-72
2021/09/19 03:44:20;;;;;;;4.65;2.88;;;10.30;99.90;;;;;;4935135;29;20067;-71
2021/09/19 03:46:46;;;;;;;4.20;2.60;;;10.30;99.90;;;;;;4953480;29;20477;-71
2021/09/19 03:49:13;;;;;;;3.70;2.75;;;10.40;99.90;;;;;;4936852;29;20087;-71
2021/09/19 03:51:39;;;;;;;3.67;2.45;;;10.40;99.90;;;;;;4938451;29;20031;-72
2021/09/19 03:54:05;;;;;;;3.83;2.28;;;10.40;99.90;;;;;;4942147;28;20046;-72
2021/09/19 03:56:31;;;;;;;4.40;2.97;;;10.40;99.90;;;;;;4956602;28;20063;-72
2021/09/19 03:58:57;;;;;;;7.68;2.78;;;10.40;99.90;;;;;;4956276;28;20035;-72
2021/09/19 04:01:24;;;;;;;3.95;2.90;;;10.40;99.90;;;;;;4955485;28;20027;-72
2021/09/19 04:03:50;;;;;;;3.58;2.20;;;10.30;99.90;;;;;;4955782;28;20046;-72
2021/09/19 04:06:16;;;;;;;5.80;2.53;;;10.30;99.90;;;;;;4955146;28;20042;-74
2021/09/19 04:08:42;;;;;;;5.43;2.50;;;10.30;99.90;;;;;;4954976;28;20047;-73
2021/09/19 04:11:09;;;;;;;6.47;2.60;;;10.30;99.90;;;;;;4970645;28;20035;-72
2021/09/19 04:13:35;;;;;;;4.95;3.33;;;10.30;99.90;;;;;;4965706;28;20055;-73
2021/09/19 04:16:01;;;;;;;4.60;2.65;;;10.30;99.90;;;;;;4955363;28;20866;-72
2021/09/19 04:18:27;;;;;;;3.63;2.63;;;10.30;99.90;;;;;;4955335;28;20047;-73
2021/09/19 04:20:54;;;;;;;4.65;3.35;;;10.40;99.90;;;;;;4956523;28;20042;-72
2021/09/19 04:23:22;;;;;;;5.03;2.60;;;10.30;99.90;;;;;;4955561;28;20042;-73
2021/09/19 04:25:50;;;;;;;3.85;2.80;;;10.30;99.90;;;;;;4965377;28;20384;-72
2021/09/19 04:28:16;;;;;;;3.95;2.30;;;10.20;99.90;;;;;;4955129;28;20027;-72
2021/09/19 04:30:42;;;;;;;5.13;2.80;;;10.20;99.90;;;;;;4955301;28;20035;-72
2021/09/19 04:33:09;;;;;;;4.70;2.83;;;10.20;99.90;;;;;;4954681;28;20046;-72
2021/09/19 04:35:35;;;;;;;3.63;2.13;;;10.10;99.90;;;;;;4955390;29;20031;-72
2021/09/19 04:38:02;;;;;;;8.35;2.97;;;10.10;99.90;;;;;;4952846;28;20051;-73
2021/09/19 04:40:28;;;;;;;4.82;3.03;;;10.10;99.90;;;;;;4955118;28;20042;-73
2021/09/19 04:42:54;;;;;;;3.63;2.70;;;10.10;99.90;;;;;;4954283;28;20405;-72
2021/09/19 04:45:21;;;;;;;4.60;2.88;;;10.20;99.90;;;;;;4955203;28;20381;-72
2021/09/19 04:47:47;;;;;;;3.42;2.70;;;10.10;99.90;;;;;;4953436;29;20043;-72
2021/09/19 04:50:13;;;;;;;4.00;2.72;;;10.10;99.90;;;;;;4954615;28;20031;-72
2021/09/19 04:52:40;;;;;;;4.03;2.45;;;10.20;99.90;;;;;;4953861;28;20046;-72
2021/09/19 04:55:06;;;;;;;3.97;2.78;;;10.20;99.90;;;;;;4953951;28;20039;-72
2021/09/19 04:57:33;;;;;;;3.65;2.30;;;10.20;99.90;;;;;;4953610;28;20500;-72
2021/09/19 04:59:59;;;;;;;5.47;3.30;;;10.30;99.90;;;;;;4954324;28;20031;-71
2021/09/19 05:02:25;;;;;;;4.88;2.55;;;10.40;99.90;;;;;;4954407;28;20027;-71
2021/09/19 05:04:51;;;;;;;5.68;3.20;;;10.50;99.90;;;;;;4953895;28;20050;-72
2021/09/19 05:07:17;;;;;;;3.03;2.03;;;10.60;99.90;;;;;;4953882;28;20039;-72
2021/09/19 05:09:43;;;;;;;3.65;2.35;;;10.60;99.90;;;;;;4954657;28;20469;-72
2021/09/19 05:12:10;;;;;;;3.85;2.35;;;10.50;99.90;;;;;;4953864;28;20287;-72
2021/09/19 05:14:36;;;;;;;3.25;2.08;;;10.50;99.90;;;;;;4952958;28;20042;-72
2021/09/19 05:17:02;;;;;;;3.35;2.35;;;10.40;99.90;;;;;;4952608;28;20031;-72
2021/09/19 05:19:29;;;;;;;4.28;2.20;;;10.30;99.90;;;;;;4953503;28;20032;-72
2021/09/19 05:21:55;;;;;;;3.17;2.22;;;10.30;99.90;;;;;;4954422;28;20031;-72
2021/09/19 05:24:21;;;;;;;3.45;2.60;;;10.30;99.90;;;;;;4954152;28;20054;-72
2021/09/19 05:26:47;;;;;;;3.88;1.92;;;10.30;99.90;;;;;;4953075;28;20046;-72
2021/09/19 05:29:13;;;;;;;3.92;2.92;;;10.20;99.90;;;;;;4953194;28;20037;-72
2021/09/19 05:31:40;;;;;;;3.33;2.13;;;10.20;99.90;;;;;;4954102;28;20108;-72
2021/09/19 05:34:06;;;;;;;3.70;2.60;;;10.30;99.90;;;;;;4953869;28;20023;-72
2021/09/19 05:36:32;;;;;;;3.97;2.58;;;10.20;99.90;;;;;;4953754;28;20058;-71
2021/09/19 05:38:58;;;;;;;3.30;2.33;;;10.20;99.90;;;;;;4953618;28;20066;-72
2021/09/19 05:41:25;;;;;;;4.25;2.50;;;10.20;99.90;;;;;;4954262;28;20043;-73
2021/09/19 05:43:51;;;;;;;3.20;2.22;;;10.20;99.90;;;;;;4954327;28;20069;-73
2021/09/19 05:46:18;;;;;;;3.42;2.13;;;10.20;99.90;;;;;;4953501;28;20035;-72
2021/09/19 05:48:44;;;;;;;4.00;2.80;;;10.30;99.90;;;;;;4953641;28;20062;-72
2021/09/19 05:51:11;;;;;;;3.55;2.08;;;10.30;99.90;;;;;;4956888;28;20032;-72
2021/09/19 05:53:38;;;;;;;4.53;2.65;;;10.50;99.90;;;;;;4957526;28;20042;-72
2021/09/19 05:56:05;;;;;;;3.10;1.85;;;10.90;99.90;;;;;;4957165;28;20038;-73
2021/09/19 05:58:31;;;;;;;2.95;2.00;;;11.10;99.90;;;;;;4957375;28;20046;-73
2021/09/19 06:00:57;;;;;;;2.75;1.75;;;11.90;99.90;;;;;;4957078;28;20039;-71
2021/09/19 06:03:23;;;;;;;2.85;1.55;;;12.80;99.90;;;;;;4957610;28;20035;-72
2021/09/19 06:05:50;;;;;;;2.38;1.38;;;13.70;99.90;;;;;;4957659;28;20036;-73
2021/09/19 06:08:16;;;;;;;1.95;1.10;;;13.80;99.90;;;;;;4955992;28;20023;-72
2021/09/19 06:10:42;;;;;;;2.25;1.15;;;13.70;99.90;;;;;;4957584;28;20038;-72
2021/09/19 06:13:08;;;;;;;3.10;1.30;;;13.60;99.90;;;;;;4957479;28;20035;-72
2021/09/19 06:15:35;;;;;;;2.53;1.27;;;13.40;99.90;;;;;;4958355;28;20037;-73
2021/09/19 06:18:01;;;;;;;1.58;1.10;;;13.30;99.90;;;;;;4959860;28;20035;-73
2021/09/19 06:20:27;;;;;;;1.60;1.10;;;13.10;99.90;;;;;;4960335;28;20392;-73
2021/09/19 06:22:53;;;;;;;1.88;1.25;;;13.10;99.90;;;;;;4958155;28;20048;-72
2021/09/19 06:25:19;;;;;;;1.30;1.10;;;13.10;99.90;;;;;;4955255;28;20035;-72
2021/09/19 06:27:46;;;;;;;1.75;1.02;;;13.10;99.90;;;;;;4957544;28;20039;-72
2021/09/19 06:30:12;;;;;;;1.70;1.17;;;13.20;99.90;;;;;;4957162;28;20473;-73
2021/09/19 06:32:39;;;;;;;2.03;1.30;;;13.70;99.90;;;;;;4957453;28;20038;-72
2021/09/19 06:35:05;;;;;;;1.42;0.80;;;14.70;99.90;;;;;;4954914;29;20401;-72
2021/09/19 06:37:32;;;;;;;1.85;1.02;;;15.30;99.90;;;;;;4956927;28;20515;-72
2021/09/19 06:39:58;;;;;;;1.33;0.90;;;16.00;98.40;;;;;;4956723;28;20031;-72
2021/09/19 06:42:24;;;;;;;4.47;1.20;;;16.30;96.10;;;;;;4956821;28;20050;-72
2021/09/19 06:44:52;;;;;;;1.30;1.02;;;16.80;94.30;;;;;;4958621;28;20104;-73
2021/09/19 06:47:19;;;;;;;1.95;1.10;;;17.20;92.20;;;;;;4925212;29;20481;-73
2021/09/19 06:49:45;;;;;;;1.80;1.10;;;16.80;92.50;;;;;;4957097;28;20039;-74
2021/09/19 06:52:12;;;;;;;2.15;1.15;;;17.10;92.20;;;;;;4956571;28;20400;-74
2021/09/19 06:54:38;;;;;;;1.63;1.10;;;17.50;91.20;;;;;;4956666;28;20055;-73
2021/09/19 06:57:05;;;;;;;1.85;1.25;;;17.90;90.20;;;;;;4939770;28;20071;-73
2021/09/19 06:59:32;;;;;;;1.50;1.30;;;18.30;88.00;;;;;;4957294;28;20050;-73
2021/09/19 07:01:58;;;;;;;1.65;1.17;;;18.10;87.80;;;;;;4955824;28;20393;-74
2021/09/19 07:04:24;;;;;;;2.25;1.33;;;18.30;87.90;;;;;;4966992;28;20046;-72
2021/09/19 07:06:51;;;;;;;2.60;1.65;;;18.10;86.30;;;;;;4956566;28;20051;-73
2021/09/19 07:09:17;;;;;;;2.15;1.42;;;18.30;86.40;;;;;;4957514;28;20039;-73
2021/09/19 07:11:43;;;;;;;2.38;1.30;;;18.10;86.90;;;;;;4956528;28;20050;-73
2021/09/19 07:14:09;;;;;;;1.95;1.40;;;18.90;84.40;;;;;;4956160;28;20035;-72
2021/09/19 07:16:36;;;;;;;2.00;1.58;;;18.70;82.80;;;;;;4957239;28;20381;-73
2021/09/19 07:19:02;;;;;;;2.10;1.42;;;18.40;82.20;;;;;;4956761;28;20034;-72
2021/09/19 07:21:28;;;;;;;2.38;1.60;;;18.30;82.10;;;;;;4957120;28;20035;-72
2021/09/19 07:23:54;;;;;;;1.85;1.30;;;18.20;82.30;;;;;;4965653;28;20066;-71
2021/09/19 07:26:21;;;;;;;1.98;1.35;;;17.70;84.10;;;;;;4958470;28;20034;-72
2021/09/19 07:28:47;;;;;;;2.35;1.02;;;17.70;83.90;;;;;;4956795;28;20039;-72
2021/09/19 07:31:14;;;;;;;2.03;1.50;;;17.90;84.40;;;;;;4955079;28;20032;-73
2021/09/19 07:33:41;;;;;;;1.75;1.48;;;18.40;82.40;;;;;;4973312;28;20035;-72
2021/09/19 07:36:08;;;;;;;1.92;1.25;;;18.40;81.90;;;;;;4971486;28;20027;-72
2021/09/19 07:38:35;;;;;;;2.30;1.50;;;18.60;81.70;;;;;;4968545;28;20042;-72
2021/09/19 07:41:01;;;;;;;1.35;1.05;;;18.60;80.30;;;;;;4955384;28;20159;-73
2021/09/19 07:43:27;;;;;;;1.67;1.38;;;18.10;82.30;;;;;;4973043;28;20093;-73
2021/09/19 07:45:54;;;;;;;2.20;1.25;;;18.00;81.60;;;;;;4958899;28;20054;-73
2021/09/19 07:48:21;;;;;;;2.30;1.40;;;18.00;82.00;;;;;;4955331;28;20043;-73
2021/09/19 07:50:48;;;;;;;2.10;1.40;;;17.80;82.40;;;;;;4954430;28;20288;-73
2021/09/19 07:53:14;;;;;;;2.53;1.60;;;17.80;82.10;;;;;;4955570;29;20039;-73
2021/09/19 07:55:40;;;;;;;2.15;1.40;;;17.90;81.00;;;;;;4955351;28;20051;-73
2021/09/19 07:58:07;;;;;;;1.73;1.35;;;18.10;80.50;;;;;;4955132;29;20047;-75
2021/09/19 08:00:33;;;;;;;2.97;1.50;;;17.90;81.50;;;;;;4955723;28;20047;-72
2021/09/19 08:02:59;;;;;;;1.58;1.23;;;18.30;80.20;;;;;;4945167;28;20031;-72
2021/09/19 08:05:26;;;;;;;2.22;1.52;;;18.10;80.10;;;;;;4955772;28;20031;-73
2021/09/19 08:07:52;;;;;;;2.10;1.50;;;18.20;81.30;;;;;;4956350;28;20039;-73
2021/09/19 08:10:19;;;;;;;1.40;1.20;;;18.90;79.20;;;;;;4956383;28;20039;-71
2021/09/19 08:12:48;;;;;;;2.47;1.23;;;19.20;78.60;;;;;;4957984;28;20039;-72
2021/09/19 08:15:19;;;;;;;2.10;1.30;;;18.80;76.80;;;;;;4950113;28;20047;-72
2021/09/19 08:17:46;;;;;;;1.70;1.15;;;18.90;78.00;;;;;;4957274;28;20042;-73
2021/09/19 08:20:14;;;;;;;2.33;1.00;;;19.10;77.40;;;;;;4955985;28;20476;-72
2021/09/19 08:22:40;;;;;;;1.05;0.90;;;19.60;74.60;;;;;;4954328;28;20043;-72
2021/09/19 08:25:08;;;;;;;1.65;1.13;;;19.70;73.70;;;;;;4954935;28;20378;-73
2021/09/19 08:27:37;;;;;;;2.25;1.20;;;19.80;72.20;;;;;;4938909;29;20039;-73
2021/09/19 08:30:05;;;;;;;1.45;1.20;;;19.60;72.90;;;;;;4959289;28;20046;-73
2021/09/19 08:32:31;;;;;;;1.33;0.90;;;20.00;72.50;;;;;;4955686;28;20047;-73
2021/09/19 08:34:57;;;;;;;1.45;1.17;;;20.10;71.70;;;;;;4963224;28;20456;-74
2021/09/19 08:37:24;;;;;;;1.40;0.80;;;19.90;71.10;;;;;;4971732;28;20038;-72
2021/09/19 08:39:50;;;;;;;1.33;1.02;;;20.40;70.30;;;;;;4953189;28;20047;-73
2021/09/19 08:42:16;;;;;;;2.45;1.40;;;20.30;70.80;;;;;;4955361;28;20030;-72
2021/09/19 08:44:42;;;;;;;1.63;1.17;;;19.80;70.70;;;;;;4955301;28;20047;-73
2021/09/19 08:47:12;;;;;;;1.17;0.70;;;20.00;70.70;;;;;;4955535;28;20496;-72
2021/09/19 08:49:39;;;;;;;3.33;1.23;;;20.50;69.80;;;;;;4956213;28;20031;-74
2021/09/19 08:52:05;;;;;;;0.73;0.63;;;20.80;70.40;;;;;;4956423;28;20023;-71
2021/09/19 08:54:31;;;;;;;1.73;1.23;;;20.90;68.90;;;;;;4956566;28;20055;-72
2021/09/19 08:56:58;;;;;;;1.60;0.80;;;20.30;70.00;;;;;;4957307;28;20042;-73
2021/09/19 08:59:42;;;;;;;1.15;0.95;;;20.60;69.10;;;;;;4956135;28;20393;-73
2021/09/19 09:02:08;;;;;;;1.42;1.00;;;20.80;68.40;;;;;;4954505;28;20031;-72
2021/09/19 09:04:37;;;;;;;1.25;0.90;;;21.60;66.30;;;;;;4954842;28;20031;-73
2021/09/19 09:07:04;;;;;;;2.65;0.70;;;22.30;64.80;;;;;;4954446;28;20046;-71
2021/09/19 09:09:30;;;;;;;1.38;1.08;;;21.80;64.70;;;;;;4955296;28;20397;-73
2021/09/19 09:12:12;;;;;;;2.15;1.45;;;21.00;66.70;;;;;;4955064;28;20038;-73
2021/09/19 09:14:51;;;;;;;2.38;1.23;;;21.80;65.60;;;;;;4963007;28;20477;-72
2021/09/19 09:17:26;;;;;;;1.53;1.00;;;21.90;65.20;;;;;;4961227;28;20035;-72
2021/09/19 09:19:55;;;;;;;1.90;1.00;;;21.50;65.20;;;;;;4955037;28;20295;-73
2021/09/19 09:22:29;;;;;;;1.92;1.15;;;21.40;65.40;;;;;;4953990;28;20035;-73
2021/09/19 09:25:12;;;;;;;1.70;1.10;;;22.20;64.70;;;;;;4953403;28;20027;-72
2021/09/19 09:27:42;;;;;;;2.28;0.80;;;21.90;64.00;;;;;;4957033;28;20044;-72
2021/09/19 09:30:26;;;;;;;1.50;1.10;;;21.50;66.60;;;;;;4954438;28;20393;-73
2021/09/19 09:33:02;;;;;;;1.10;0.93;;;21.40;65.30;;;;;;4954394;28;20474;-72
2021/09/19 09:35:37;;;;;;;1.85;1.17;;;21.20;67.20;;;;;;4954472;28;20031;-74
2021/09/19 09:38:17;;;;;;;1.33;1.10;;;21.60;66.10;;;;;;4954046;28;20042;-74
2021/09/19 09:40:43;;;;;;;1.33;1.17;;;21.30;64.90;;;;;;4954158;28;20031;-73
2021/09/19 09:43:12;;;;;;;1.45;1.20;;;20.60;66.80;;;;;;4953739;28;20031;-72
2021/09/19 09:45:41;;;;;;;1.92;1.08;;;20.50;67.20;;;;;;4953785;28;20035;-72
2021/09/19 09:48:31;;;;;;;1.25;0.98;;;20.60;68.40;;;;;;4953095;28;20031;-73
2021/09/19 09:51:00;;;;;;;1.27;1.00;;;20.70;67.50;;;;;;4954233;28;20054;-73
2021/09/19 09:53:27;;;;;;;2.90;1.15;;;20.60;67.40;;;;;;4953889;28;20409;-72
2021/09/19 09:55:56;;;;;;;2.00;1.35;;;19.70;69.90;;;;;;4953699;28;20066;-73
2021/09/19 09:58:22;;;;;;;2.25;1.67;;;19.30;70.40;;;;;;4954092;28;20039;-74
2021/09/19 10:00:50;;;;;;;2.03;1.20;;;18.90;71.80;;;;;;4954327;28;20031;-74
2021/09/19 10:03:17;;;;;;;2.05;1.23;;;18.90;73.80;;;;;;4953554;28;20039;-73
2021/09/19 10:05:44;;;;;;;1.70;1.05;;;19.30;71.30;;;;;;4953994;29;20392;-72
2021/09/19 10:08:11;;;;;;;1.80;1.08;;;19.20;70.80;;;;;;4953410;28;20043;-73
2021/09/19 10:10:41;;;;;;;1.52;1.02;;;19.10;71.40;;;;;;4953833;28;20043;-73
2021/09/19 10:13:08;;;;;;;1.70;1.08;;;18.70;71.90;;;;;;4953291;28;20023;-72
2021/09/19 10:15:35;;;;;;;1.65;1.23;;;18.50;71.90;;;;;;4953706;28;20035;-73
2021/09/19 10:18:02;;;;;;;1.40;1.00;;;18.30;72.40;;;;;;4953529;28;20039;-72
2021/09/19 10:20:32;;;;;;;1.70;1.02;;;18.80;72.40;;;;;;4953431;28;20031;-73
2021/09/19 10:23:21;;;;;;;1.90;1.17;;;19.00;70.80;;;;;;4953642;28;20034;-72
2021/09/19 10:25:53;;;;;;;1.38;1.02;;;18.90;70.30;;;;;;4959422;28;20062;-72
2021/09/19 10:28:25;;;;;;;2.00;0.90;;;18.90;71.20;;;;;;4953755;28;20031;-72
2021/09/19 10:31:13;;;;;;;1.63;0.70;;;19.20;70.50;;;;;;4951943;28;20054;-73
2021/09/19 10:33:55;;;;;;;1.42;1.05;;;19.30;71.60;;;;;;4954028;28;20448;-72
2021/09/19 10:36:53;;;;;;;1.98;1.10;;;18.90;71.20;;;;;;4955551;28;20124;-71
2021/09/19 10:39:26;;;;;;;2.17;1.17;;;18.90;71.70;;;;;;4957746;28;20394;-73
2021/09/19 10:42:28;;;;;;;2.13;1.10;;;19.30;70.60;;;;;;4959347;28;20397;-73
2021/09/19 10:44:59;;;;;;;1.65;1.00;;;19.40;70.20;;;;;;4962083;28;20047;-71
2021/09/19 10:47:35;;;;;;;1.67;0.80;;;19.60;69.70;;;;;;4966645;28;20043;-71
2021/09/19 10:50:13;;;;;;;1.48;1.05;;;19.80;68.70;;;;;;4974748;28;20027;-72
2021/09/19 10:52:44;;;;;;;2.35;1.00;;;19.60;69.50;;;;;;4961946;28;20039;-73
2021/09/19 10:55:25;;;;;;;2.35;0.93;;;19.80;68.50;;;;;;4940603;29;20055;-73
2021/09/19 10:58:04;;;;;;;1.10;0.82;;;20.00;68.20;;;;;;4960662;28;20043;-74
2021/09/19 11:00:32;;;;;;;1.67;1.08;;;20.00;67.90;;;;;;4940601;29;20469;-73
2021/09/19 11:03:05;;;;;;;1.50;0.90;;;20.50;67.00;;;;;;4956989;28;20070;-72
2021/09/19 11:05:35;;;;;;;0.93;0.70;;;20.80;67.10;;;;;;4958601;28;20054;-73
2021/09/19 11:08:08;;;;;;;2.20;1.35;;;20.70;65.60;;;;;;4942053;29;20047;-73
2021/09/19 11:10:46;;;;;;;1.15;0.70;;;20.50;66.40;;;;;;4960005;28;20035;-72
2021/09/19 11:13:27;;;;;;;1.65;0.98;;;20.80;66.80;;;;;;4966492;28;20047;-72
2021/09/19 11:16:03;;;;;;;2.22;1.10;;;20.90;65.90;;;;;;4958353;28;20047;-72
2021/09/19 11:18:47;;;;;;;2.13;1.00;;;20.70;65.90;;;;;;4959489;28;20626;-74
2021/09/19 11:21:20;;;;;;;1.38;0.85;;;20.40;66.40;;;;;;4958084;28;20413;-75
2021/09/19 11:23:48;;;;;;;1.52;0.80;;;20.30;66.90;;;;;;4958846;28;20050;-73
2021/09/19 11:26:20;;;;;;;1.33;0.90;;;20.40;66.00;;;;;;4972364;28;20371;-73
2021/09/19 11:28:47;;;;;;;1.85;1.15;;;20.50;65.90;;;;;;4956626;28;20058;-72
2021/09/19 11:31:18;;;;;;;1.00;0.85;;;20.20;65.40;;;;;;4956163;28;20035;-72
2021/09/19 11:33:47;;;;;;;1.58;0.90;;;20.00;66.40;;;;;;4956949;28;20481;-72
2021/09/19 11:36:19;;;;;;;1.38;0.77;;;20.10;66.00;;;;;;4956263;28;20034;-73
2021/09/19 11:38:48;;;;;;;1.55;1.02;;;20.40;66.50;;;;;;4960695;28;20035;-73
2021/09/19 11:41:16;;;;;;;1.33;0.75;;;20.70;64.90;;;;;;4976647;28;20046;-72
2021/09/19 11:43:44;;;;;;;1.35;0.80;;;20.70;64.30;;;;;;4974781;28;20042;-73
2021/09/19 11:46:15;;;;;;;0.70;0.60;;;20.60;64.20;;;;;;4962878;28;20054;-73
2021/09/19 11:48:41;;;;;;;1.42;0.93;;;20.80;64.30;;;;;;4956956;28;20035;-73
2021/09/19 11:51:16;;;;;;;1.40;0.82;;;21.30;63.50;;;;;;4939296;29;20374;-74
2021/09/19 11:53:52;;;;;;;1.67;1.10;;;21.00;63.70;;;;;;4954822;28;20051;-74
2021/09/19 11:56:20;;;;;;;1.13;0.70;;;20.60;64.00;;;;;;4956186;28;20035;-73
2021/09/19 11:58:48;;;;;;;1.35;0.82;;;20.40;64.10;;;;;;4955358;28;20038;-73
2021/09/19 12:01:14;;;;;;;1.23;0.70;;;20.60;64.00;;;;;;4955411;28;20038;-72
2021/09/19 12:03:41;;;;;;;0.93;0.65;;;20.70;61.20;;;;;;4955792;28;20058;-72
2021/09/19 12:06:09;;;;;;;1.13;0.73;;;20.80;61.80;;;;;;4954419;28;20035;-73
2021/09/19 12:08:40;;;;;;;1.75;0.85;;;20.80;60.90;;;;;;4955325;28;20046;-72
2021/09/19 12:11:06;;;;;;;1.10;0.82;;;20.50;62.70;;;;;;4958218;28;20034;-73
2021/09/19 12:13:42;;;;;;;1.20;0.70;;;20.30;64.40;;;;;;4970710;28;20041;-71
2021/09/19 12:16:15;;;;;;;1.38;0.75;;;20.30;64.40;;;;;;4970998;28;20041;-73
2021/09/19 12:18:44;;;;;;;1.20;0.60;;;20.20;64.60;;;;;;4956875;28;20033;-73
2021/09/19 12:21:23;;;;;;;1.30;0.80;;;20.10;66.50;;;;;;4968222;28;20046;-73
2021/09/19 12:23:58;;;;;;;1.17;0.70;;;20.10;66.20;;;;;;4971040;28;20027;-73
2021/09/19 12:26:25;;;;;;;0.80;0.63;;;20.10;66.40;;;;;;4965443;28;20047;-73
2021/09/19 12:28:54;;;;;;;1.70;1.27;;;20.10;66.40;;;;;;4973108;28;20034;-73
2021/09/19 12:31:40;;;;;;;2.13;1.08;;;20.10;67.90;;;;;;4956262;28;20043;-72
2021/09/19 12:34:08;;;;;;;2.03;1.48;;;20.30;67.60;;;;;;4955368;28;20039;-73
2021/09/19 12:36:40;;;;;;;2.15;1.10;;;20.20;67.10;;;;;;4967411;28;20042;-73
2021/09/19 12:39:13;;;;;;;1.85;1.05;;;20.30;66.80;;;;;;4971855;28;20472;-72
2021/09/19 12:41:40;;;;;;;1.77;0.90;;;20.50;66.20;;;;;;4969217;28;20366;-73
2021/09/19 12:44:15;;;;;;;1.48;0.70;;;20.40;65.20;;;;;;4954011;28;20031;-73
2021/09/19 12:46:50;;;;;;;1.95;0.90;;;20.40;65.00;;;;;;4954952;28;20516;-72
2021/09/19 12:49:21;;;;;;;1.30;0.82;;;20.30;65.40;;;;;;4954721;28;20042;-73
2021/09/19 12:52:08;;;;;;;0.75;0.65;;;19.80;66.30;;;;;;4954848;28;20362;-73
2021/09/19 12:54:43;;;;;;;1.92;0.90;;;19.90;67.00;;;;;;4934270;29;20055;-72